Wonder Lake, Illinois
Current Conditions -  °F | °C
As of 4:15 PM on Monday 20 Oct 2014 (Local Time) from KBUU Reporting Station
Overcast Overcast  
Wind Chill: 55°   Ceiling: 5000
Heat Index: 55°   Visibility: 10mi
Dew Point: 42°   Wind: 12mph
Humidity: 62%   Direction: 350°N
Pressure: 29.92"   Gusts: 17mph
Location:  42.39°N, 88.35°W
Report Text: KBUU 202115Z AUTO 35010G15KT 10SM OVC050 13/06 A2992 RMK AO2 T01250055
Loading
Personal Weather Stations






























Interactive Weather Map
Tropical Storm Tracking
New forecast layout! Learn more

10-Day Weather Forecast

Advertisements
Track Severe Weather on mobile